createdAt,value
2018-06-12T00:01:22.519Z,86.00
2018-06-12T00:03:55.380Z,86.10
2018-06-12T00:06:31.223Z,86.00
2018-06-12T00:09:04.034Z,86.10
2018-06-12T00:11:36.831Z,86.10
2018-06-12T00:14:09.271Z,86.30
2018-06-12T00:16:42.692Z,86.50
2018-06-12T00:19:14.518Z,86.40
2018-06-12T00:21:46.741Z,86.40
2018-06-12T00:24:22.850Z,86.40
2018-06-12T00:26:55.053Z,86.50
2018-06-12T00:29:38.263Z,86.50
2018-06-12T00:32:10.937Z,86.50
2018-06-12T00:34:43.252Z,86.60
2018-06-12T00:37:15.064Z,86.40
2018-06-12T00:39:48.022Z,86.50
2018-06-12T00:42:20.355Z,86.70
2018-06-12T00:44:52.953Z,86.60
2018-06-12T00:47:24.876Z,86.70
2018-06-12T00:49:56.258Z,87.10
2018-06-12T00:52:28.063Z,87.00
2018-06-12T00:55:00.540Z,87.20
2018-06-12T00:57:33.017Z,87.20
2018-06-12T01:00:05.686Z,87.20
2018-06-12T01:02:37.642Z,87.20
2018-06-12T01:05:14.545Z,87.30
2018-06-12T01:07:46.525Z,87.40
2018-06-12T01:10:19.204Z,87.50
2018-06-12T01:12:56.073Z,87.60
2018-06-12T01:15:27.757Z,87.50
2018-06-12T01:18:00.210Z,87.30
2018-06-12T01:20:32.273Z,87.60
2018-06-12T01:23:04.142Z,87.70
2018-06-12T01:25:37.122Z,87.80
2018-06-12T01:28:10.256Z,87.90
2018-06-12T01:30:42.576Z,88.10
2018-06-12T01:33:15.653Z,88.00
2018-06-12T01:35:48.694Z,87.80
2018-06-12T01:38:25.826Z,88.00
2018-06-12T01:40:59.754Z,87.90
2018-06-12T01:43:32.651Z,88.00
2018-06-12T01:46:04.805Z,88.10
2018-06-12T01:48:37.559Z,88.20
2018-06-12T01:51:16.081Z,88.20
2018-06-12T01:53:52.494Z,88.30
2018-06-12T01:56:24.998Z,88.40
2018-06-12T01:58:58.112Z,88.30
2018-06-12T02:04:02.900Z,88.70
2018-06-12T02:06:37.633Z,88.70
2018-06-12T02:09:12.611Z,88.70
2018-06-12T02:11:46.256Z,88.40
2018-06-12T02:14:19.973Z,88.70
2018-06-12T02:16:57.902Z,88.80
2018-06-12T02:19:31.171Z,88.70
2018-06-12T02:22:05.102Z,88.60
2018-06-12T02:24:38.197Z,88.70
2018-06-12T02:27:11.086Z,88.80
2018-06-12T02:29:48.360Z,88.80
2018-06-12T02:32:24.362Z,89.20
2018-06-12T02:35:05.938Z,89.30
2018-06-12T02:37:38.596Z,88.90
2018-06-12T02:40:10.901Z,88.70
2018-06-12T02:42:43.223Z,88.30
2018-06-12T02:45:16.304Z,88.00
2018-06-12T02:47:48.747Z,88.10
2018-06-12T02:50:21.773Z,87.90
2018-06-12T02:52:55.008Z,87.50
2018-06-12T02:58:04.631Z,87.40
2018-06-12T03:00:37.370Z,87.50
2018-06-12T03:03:10.694Z,87.50
2018-06-12T03:05:43.371Z,87.50
2018-06-12T03:08:17.353Z,87.40
2018-06-12T03:10:49.324Z,87.60
2018-06-12T03:13:22.507Z,87.50
2018-06-12T03:16:01.698Z,87.70
2018-06-12T03:18:35.794Z,87.50
2018-06-12T03:21:09.019Z,87.70
2018-06-12T03:23:43.173Z,87.60
2018-06-12T03:29:08.182Z,87.40
2018-06-12T03:31:39.728Z,87.40
2018-06-12T03:34:11.560Z,87.40
2018-06-12T03:36:44.687Z,87.20
2018-06-12T03:39:25.856Z,87.10
2018-06-12T03:41:58.967Z,87.30
2018-06-12T03:44:30.660Z,87.40
2018-06-12T03:47:02.152Z,87.50
2018-06-12T03:49:34.289Z,87.60
2018-06-12T03:52:07.223Z,87.80
2018-06-12T03:54:40.076Z,87.70
2018-06-12T03:57:11.968Z,87.80
2018-06-12T03:59:50.006Z,87.70
2018-06-12T04:02:22.550Z,87.80
2018-06-12T04:04:55.597Z,87.60
2018-06-12T04:07:29.631Z,87.20
2018-06-12T04:10:01.788Z,87.50
2018-06-12T04:12:36.666Z,87.10
2018-06-12T04:15:08.079Z,87.20
2018-06-12T04:17:40.703Z,87.20
2018-06-12T04:22:43.398Z,86.80
2018-06-12T04:25:14.804Z,87.00
2018-06-12T04:27:47.286Z,86.70
2018-06-12T04:30:20.071Z,86.20
2018-06-12T04:32:51.746Z,86.20
2018-06-12T04:35:24.112Z,86.20
2018-06-12T04:37:56.269Z,86.30
2018-06-12T04:40:28.040Z,85.70
2018-06-12T04:43:00.189Z,85.60
2018-06-12T04:45:31.917Z,85.50
2018-06-12T04:50:34.586Z,85.60
2018-06-12T04:53:12.321Z,86.10
2018-06-12T04:55:44.287Z,86.40
2018-06-12T04:58:16.598Z,86.10
2018-06-12T05:00:50.168Z,85.60
2018-06-12T05:03:22.011Z,85.30
2018-06-12T05:05:53.844Z,84.60
2018-06-12T05:08:29.942Z,84.40
2018-06-12T05:11:01.121Z,84.80
2018-06-12T05:13:33.807Z,84.30
2018-06-12T05:16:06.553Z,84.80
2018-06-12T05:18:37.142Z,84.30
2018-06-12T05:21:08.084Z,83.90
2018-06-12T05:23:38.760Z,83.40
2018-06-12T05:28:40.018Z,83.40
2018-06-12T05:31:17.196Z,84.20
2018-06-12T05:33:46.940Z,83.70
2018-06-12T05:36:17.282Z,83.50
2018-06-12T05:38:47.722Z,83.00
2018-06-12T05:41:22.291Z,82.60
2018-06-12T05:43:52.676Z,81.70
2018-06-12T05:46:24.091Z,81.80
2018-06-12T05:48:59.080Z,81.50
2018-06-12T05:51:29.615Z,81.10
2018-06-12T05:54:11.653Z,80.90
2018-06-12T05:56:41.957Z,81.30
2018-06-12T05:59:13.549Z,80.90
2018-06-12T06:01:44.602Z,81.50
2018-06-12T06:04:28.973Z,80.80
2018-06-12T06:06:59.665Z,80.90
2018-06-12T06:09:30.256Z,80.90
2018-06-12T06:12:00.882Z,81.30
2018-06-12T06:14:40.749Z,81.70
2018-06-12T06:17:11.042Z,81.80
2018-06-12T06:20:00.416Z,81.00
2018-06-12T06:22:31.219Z,80.40
2018-06-12T06:25:02.054Z,81.00
2018-06-12T06:27:32.097Z,80.10
2018-06-12T06:30:03.751Z,79.60
2018-06-12T06:32:34.607Z,79.50
2018-06-12T06:35:16.178Z,78.80
2018-06-12T06:37:46.630Z,79.60
2018-06-12T06:40:17.372Z,78.80
2018-06-12T06:42:47.332Z,78.90
2018-06-12T06:45:19.152Z,78.70
2018-06-12T06:47:48.996Z,78.40
2018-06-12T06:50:19.149Z,78.60
2018-06-12T06:52:49.395Z,78.30
2018-06-12T06:55:19.373Z,77.70
2018-06-12T06:57:50.125Z,78.10
2018-06-12T07:00:20.715Z,78.40
2018-06-12T07:05:21.746Z,77.90
2018-06-12T07:07:52.948Z,77.70
2018-06-12T07:10:25.752Z,77.60
2018-06-12T07:12:56.094Z,77.30
2018-06-12T07:15:26.588Z,77.20
2018-06-12T07:17:57.525Z,77.50
2018-06-12T07:20:46.745Z,77.30
2018-06-12T07:23:17.737Z,77.50
2018-06-12T07:26:02.062Z,77.60
2018-06-12T07:28:32.391Z,76.80
2018-06-12T07:31:02.688Z,76.60
2018-06-12T07:33:37.804Z,76.40
2018-06-12T07:36:09.771Z,77.60
2018-06-12T07:38:40.204Z,76.70
2018-06-12T07:41:18.371Z,76.00
2018-06-12T07:43:49.783Z,74.40
2018-06-12T07:46:20.384Z,75.60
2018-06-12T07:48:53.622Z,74.20
2018-06-12T07:51:23.671Z,74.30
2018-06-12T07:53:59.569Z,74.50
2018-06-12T07:56:29.554Z,74.50
2018-06-12T07:59:00.868Z,74.40
2018-06-12T08:01:31.364Z,74.30
2018-06-12T08:04:03.067Z,74.30
2018-06-12T08:06:33.375Z,74.10
2018-06-12T08:09:12.039Z,73.50
2018-06-12T08:11:42.429Z,73.20
2018-06-12T08:14:16.665Z,73.00
2018-06-12T08:16:46.489Z,74.00
2018-06-12T08:19:21.412Z,73.50
2018-06-12T08:21:51.819Z,73.00
2018-06-12T08:24:27.263Z,72.30
2018-06-12T08:26:58.475Z,72.40
2018-06-12T08:29:29.574Z,72.20
2018-06-12T08:32:00.298Z,71.20
2018-06-12T08:34:31.134Z,70.90
2018-06-12T08:37:01.225Z,70.80
2018-06-12T08:39:31.160Z,70.30
2018-06-12T08:42:01.701Z,70.10
2018-06-12T08:44:31.829Z,69.50
2018-06-12T08:49:32.514Z,69.50
2018-06-12T08:52:02.824Z,68.70
2018-06-12T08:54:33.141Z,69.60
2018-06-12T08:59:33.722Z,70.70
2018-06-12T09:02:04.401Z,70.50
2018-06-12T09:04:34.746Z,70.40
2018-06-12T09:09:34.339Z,69.60
2018-06-12T09:12:04.549Z,69.20
2018-06-12T09:14:34.779Z,70.00
2018-06-12T09:17:06.837Z,68.60
2018-06-12T09:19:37.171Z,68.50
2018-06-12T09:22:07.405Z,67.70
2018-06-12T09:24:41.326Z,68.50
2018-06-12T09:27:11.546Z,68.40
2018-06-12T09:29:45.690Z,66.40
2018-06-12T09:32:16.315Z,66.60
2018-06-12T09:34:48.385Z,65.90
2018-06-12T09:37:19.028Z,66.50
2018-06-12T09:39:49.026Z,66.20
2018-06-12T09:42:29.683Z,66.60
2018-06-12T09:45:00.339Z,65.70
2018-06-12T09:47:35.525Z,65.70
2018-06-12T09:50:06.322Z,65.50
2018-06-12T09:52:36.519Z,66.30
2018-06-12T09:55:08.115Z,64.80
2018-06-12T09:57:38.244Z,65.00
2018-06-12T10:00:08.707Z,65.10
2018-06-12T10:02:39.343Z,64.20
2018-06-12T10:05:09.376Z,65.20
2018-06-12T10:07:39.841Z,65.20
2018-06-12T10:10:10.925Z,65.40
2018-06-12T10:12:40.692Z,65.20
2018-06-12T10:15:11.091Z,66.30
2018-06-12T10:17:41.034Z,66.10
2018-06-12T10:20:10.947Z,66.70
2018-06-12T10:22:40.437Z,66.40
2018-06-12T10:25:19.645Z,64.30
2018-06-12T10:27:49.814Z,64.00
2018-06-12T10:30:19.798Z,64.50
2018-06-12T10:32:51.923Z,64.50
2018-06-12T10:35:21.977Z,63.10
2018-06-12T10:37:52.171Z,62.30
2018-06-12T10:40:24.524Z,61.80
2018-06-12T10:42:54.302Z,61.80
2018-06-12T10:48:06.015Z,61.50
2018-06-12T10:50:36.191Z,60.10
2018-06-12T10:53:08.637Z,61.50
2018-06-12T10:55:39.397Z,60.80
2018-06-12T10:58:10.673Z,61.60
2018-06-12T11:00:40.789Z,61.70
2018-06-12T11:03:16.189Z,61.50
2018-06-12T11:05:45.971Z,61.50
2018-06-12T11:08:18.160Z,59.60
2018-06-12T11:10:48.282Z,58.70
2018-06-12T11:13:18.980Z,58.20
2018-06-12T11:15:48.790Z,57.90
2018-06-12T11:18:20.958Z,57.70
2018-06-12T11:20:51.052Z,58.60
2018-06-12T11:23:26.678Z,58.90
2018-06-12T11:25:57.632Z,58.50
2018-06-12T11:28:27.810Z,57.70
2018-06-12T11:31:06.575Z,57.50
2018-06-12T11:33:36.904Z,57.80
2018-06-12T11:36:13.769Z,58.20
2018-06-12T11:38:47.799Z,58.90
2018-06-12T11:41:17.986Z,60.10
2018-06-12T11:43:49.229Z,61.30
2018-06-12T11:46:20.039Z,61.20
2018-06-12T11:48:50.962Z,62.70
2018-06-12T11:51:33.670Z,64.10
2018-06-12T11:54:04.663Z,64.90
2018-06-12T11:56:39.563Z,65.10
2018-06-12T11:59:09.971Z,65.30
2018-06-12T12:01:40.889Z,66.00
2018-06-12T12:04:11.654Z,67.30
2018-06-12T12:06:42.521Z,67.50
2018-06-12T12:09:14.276Z,67.80
2018-06-12T12:11:45.104Z,68.40
2018-06-12T12:14:16.089Z,67.10
2018-06-12T12:16:46.445Z,67.80
2018-06-12T12:19:16.329Z,67.70
2018-06-12T12:21:56.492Z,67.80
2018-06-12T12:24:30.499Z,68.10
2018-06-12T12:27:03.209Z,67.90
2018-06-12T12:29:33.838Z,67.90
2018-06-12T12:32:04.368Z,68.70
2018-06-12T12:34:36.986Z,68.10
2018-06-12T12:37:07.801Z,68.10
2018-06-12T12:39:38.500Z,69.70
2018-06-12T12:42:17.061Z,70.90
2018-06-12T12:44:48.256Z,73.20
2018-06-12T12:47:20.133Z,76.00
2018-06-12T12:49:52.547Z,74.30
2018-06-12T12:52:25.521Z,72.70
2018-06-12T12:54:59.445Z,75.20
2018-06-12T12:57:30.293Z,74.10
2018-06-12T13:00:01.096Z,73.80
2018-06-12T13:02:32.340Z,73.10
2018-06-12T13:05:03.245Z,73.50
2018-06-12T13:07:34.595Z,74.50
2018-06-12T13:10:06.232Z,74.40
2018-06-12T13:12:37.314Z,74.50
2018-06-12T13:15:08.043Z,73.10
2018-06-12T13:17:39.638Z,73.20
2018-06-12T13:20:14.734Z,73.50
2018-06-12T13:22:46.764Z,74.30
2018-06-12T13:25:21.423Z,74.00
2018-06-12T13:27:52.704Z,73.90
2018-06-12T13:30:23.332Z,74.00
2018-06-12T13:32:54.418Z,73.90
2018-06-12T13:35:24.949Z,73.90
2018-06-12T13:38:06.758Z,74.50
2018-06-12T13:40:38.300Z,74.30
2018-06-12T13:43:08.797Z,75.10
2018-06-12T13:45:39.512Z,74.90
2018-06-12T13:48:10.152Z,75.30
2018-06-12T13:50:41.453Z,75.40
2018-06-12T13:53:12.160Z,75.40
2018-06-12T13:55:42.472Z,75.70
2018-06-12T13:58:13.208Z,76.30
2018-06-12T14:00:43.419Z,75.90
2018-06-12T14:03:16.104Z,75.60
2018-06-12T14:05:46.379Z,74.90
2018-06-12T14:08:17.207Z,75.30
2018-06-12T14:10:47.812Z,75.60
2018-06-12T14:13:18.017Z,75.70
2018-06-12T14:15:48.548Z,76.40
2018-06-12T14:18:18.844Z,76.10
2018-06-12T14:20:49.576Z,77.80
2018-06-12T14:23:25.365Z,78.40
2018-06-12T14:25:57.735Z,79.60
2018-06-12T14:28:28.813Z,80.90
2018-06-12T14:30:59.591Z,80.90
2018-06-12T14:33:30.610Z,84.30
2018-06-12T14:36:02.221Z,83.90
2018-06-12T14:38:32.722Z,84.00
2018-06-12T14:41:07.794Z,84.80
2018-06-12T14:43:39.280Z,84.30
2018-06-12T14:48:41.128Z,85.90
2018-06-12T14:51:13.796Z,84.60
2018-06-12T14:53:44.760Z,84.40
2018-06-12T14:56:15.069Z,82.90
2018-06-12T14:58:50.101Z,84.20
2018-06-12T15:01:24.901Z,83.90
2018-06-12T15:03:57.849Z,83.50
2018-06-12T15:06:28.731Z,82.80
2018-06-12T15:09:00.031Z,82.00
2018-06-12T15:11:31.907Z,81.10
2018-06-12T15:14:02.373Z,81.50
2018-06-12T15:16:33.109Z,80.50
2018-06-12T15:19:08.823Z,79.70
2018-06-12T15:21:40.741Z,78.30
2018-06-12T15:24:12.242Z,75.10
2018-06-12T15:26:42.751Z,72.80
2018-06-12T15:29:13.946Z,68.70
2018-06-12T15:31:48.580Z,66.80
2018-06-12T15:34:19.390Z,67.20
2018-06-12T15:36:50.502Z,67.10
2018-06-12T15:39:21.108Z,66.30
2018-06-12T15:41:51.193Z,66.80
2018-06-12T15:44:22.167Z,69.00
2018-06-12T15:46:52.592Z,67.20
2018-06-12T15:49:24.427Z,68.40
2018-06-12T15:51:54.659Z,69.80
2018-06-12T15:54:27.840Z,70.80
2018-06-12T15:57:00.528Z,70.30
2018-06-12T15:59:32.421Z,70.40
2018-06-12T16:02:03.615Z,70.50
2018-06-12T16:07:04.441Z,72.60
2018-06-12T16:09:35.376Z,72.30
2018-06-12T16:12:13.998Z,71.70
2018-06-12T16:14:46.198Z,73.50
2018-06-12T16:17:22.351Z,72.90
2018-06-12T16:19:53.728Z,73.90
2018-06-12T16:22:24.395Z,73.30
2018-06-12T16:24:55.207Z,73.80
2018-06-12T16:27:31.711Z,74.10
2018-06-12T16:30:04.121Z,74.40
2018-06-12T16:32:34.906Z,74.80
2018-06-12T16:35:05.959Z,76.10
2018-06-12T16:37:36.901Z,76.00
2018-06-12T16:40:14.785Z,75.70
2018-06-12T16:42:45.939Z,76.20
2018-06-12T16:45:17.375Z,74.80
2018-06-12T16:47:48.618Z,76.60
2018-06-12T16:50:20.056Z,76.40
2018-06-12T16:52:51.486Z,77.00
2018-06-12T16:55:22.674Z,75.90
2018-06-12T16:57:55.313Z,76.50
2018-06-12T17:00:26.392Z,76.60
2018-06-12T17:03:01.885Z,76.80
2018-06-12T17:05:37.473Z,76.50
2018-06-12T17:08:08.901Z,76.40
2018-06-12T17:10:41.043Z,75.20
2018-06-12T17:13:13.371Z,76.40
2018-06-12T17:15:44.699Z,76.60
2018-06-12T17:18:15.858Z,76.60
2018-06-12T17:20:46.735Z,75.90
2018-06-12T17:23:17.058Z,76.00
2018-06-12T17:25:49.500Z,75.30
2018-06-12T17:28:24.734Z,76.80
2018-06-12T17:30:56.485Z,76.50
2018-06-12T17:33:28.071Z,76.50
2018-06-12T17:36:04.584Z,76.10
2018-06-12T17:38:41.935Z,76.00
2018-06-12T17:41:12.510Z,75.90
2018-06-12T17:43:49.608Z,75.60
2018-06-12T17:46:20.750Z,76.10
2018-06-12T17:48:53.044Z,76.20
2018-06-12T17:51:24.419Z,76.20
2018-06-12T17:53:56.602Z,77.00
2018-06-12T17:56:27.682Z,76.40
2018-06-12T17:59:00.645Z,76.50
2018-06-12T18:01:31.442Z,77.00
2018-06-12T18:04:02.314Z,77.00
2018-06-12T18:06:33.055Z,77.00
2018-06-12T18:09:03.794Z,76.80
2018-06-12T18:11:39.172Z,76.20
2018-06-12T18:14:10.704Z,76.60
2018-06-12T18:16:41.845Z,76.80
2018-06-12T18:19:12.996Z,77.20
2018-06-12T18:21:44.307Z,77.20
2018-06-12T18:24:15.357Z,77.40
2018-06-12T18:26:46.526Z,77.40
2018-06-12T18:29:22.933Z,77.40
2018-06-12T18:31:54.463Z,77.40
2018-06-12T18:34:29.782Z,77.60
2018-06-12T18:37:00.786Z,77.50
2018-06-12T18:39:32.613Z,77.30
2018-06-12T18:42:03.349Z,77.30
2018-06-12T18:44:34.480Z,77.20
2018-06-12T18:47:05.484Z,77.20
2018-06-12T18:49:36.494Z,77.50
2018-06-12T18:52:08.584Z,77.30
2018-06-12T18:54:39.095Z,77.10
2018-06-12T18:57:10.485Z,77.40
2018-06-12T18:59:41.634Z,77.20
2018-06-12T19:02:12.146Z,77.60
2018-06-12T19:04:46.778Z,77.80
2018-06-12T19:07:21.431Z,77.90
2018-06-12T19:09:51.924Z,78.20
2018-06-12T19:12:24.256Z,78.30
2018-06-12T19:14:54.954Z,78.50
2018-06-12T19:17:36.564Z,78.70
2018-06-12T19:20:08.396Z,78.50
2018-06-12T19:22:45.896Z,78.90
2018-06-12T19:25:18.157Z,79.20
2018-06-12T19:27:49.960Z,79.20
2018-06-12T19:30:21.158Z,79.00
2018-06-12T19:32:52.061Z,79.50
2018-06-12T19:35:26.108Z,79.80
2018-06-12T19:37:57.326Z,79.80
2018-06-12T19:40:29.236Z,80.40
2018-06-12T19:43:02.523Z,80.60
2018-06-12T19:45:33.867Z,80.90
2018-06-12T19:48:05.594Z,80.90
2018-06-12T19:50:36.379Z,81.10
2018-06-12T19:53:08.804Z,80.70
2018-06-12T19:55:40.185Z,80.90
2018-06-12T19:58:16.927Z,80.90
2018-06-12T20:00:54.973Z,81.10
2018-06-12T20:03:27.571Z,81.00
2018-06-12T20:06:00.324Z,81.20
2018-06-12T20:08:31.654Z,81.50
2018-06-12T20:11:02.913Z,81.90
2018-06-12T20:13:33.793Z,81.60
2018-06-12T20:16:05.003Z,81.60
2018-06-12T20:18:36.430Z,81.70
2018-06-12T20:21:07.273Z,81.30
2018-06-12T20:23:37.932Z,81.50
2018-06-12T20:26:12.780Z,81.60
2018-06-12T20:28:43.713Z,81.60
2018-06-12T20:31:13.918Z,81.60
2018-06-12T20:33:44.585Z,81.60
2018-06-12T20:36:15.538Z,81.80
2018-06-12T20:38:45.837Z,81.70
2018-06-12T20:41:16.509Z,81.70
2018-06-12T20:43:48.447Z,81.70
2018-06-12T20:46:18.869Z,81.20
2018-06-12T20:48:50.506Z,80.70
2018-06-12T20:51:20.871Z,81.10
2018-06-12T20:53:52.478Z,81.10
2018-06-12T20:56:23.347Z,81.20
2018-06-12T20:58:54.021Z,81.10
2018-06-12T21:01:25.834Z,81.20
2018-06-12T21:03:56.577Z,81.60
2018-06-12T21:06:27.362Z,80.90
2018-06-12T21:08:58.846Z,81.20
2018-06-12T21:11:30.080Z,81.10
2018-06-12T21:14:00.375Z,81.10
2018-06-12T21:16:30.670Z,81.60
2018-06-12T21:19:01.620Z,81.30
2018-06-12T21:21:36.376Z,81.50
2018-06-12T21:24:08.636Z,81.50
2018-06-12T21:26:40.814Z,82.70
2018-06-12T21:29:16.201Z,81.70
2018-06-12T21:31:47.092Z,82.20
2018-06-12T21:34:18.038Z,82.30
2018-06-12T21:39:20.539Z,82.40
2018-06-12T21:41:51.234Z,82.80
2018-06-12T21:44:22.315Z,83.30
2018-06-12T21:46:53.927Z,83.90
2018-06-12T21:49:25.165Z,84.40
2018-06-12T21:52:00.522Z,84.60
2018-06-12T21:54:35.877Z,84.60
2018-06-12T21:57:13.331Z,85.10
2018-06-12T21:59:44.611Z,85.30
2018-06-12T22:02:16.277Z,85.30
2018-06-12T22:04:47.744Z,85.40
2018-06-12T22:07:23.107Z,85.40
2018-06-12T22:09:54.255Z,85.40
2018-06-12T22:12:25.918Z,85.40
2018-06-12T22:14:58.688Z,85.20
2018-06-12T22:17:43.234Z,85.70
2018-06-12T22:20:13.950Z,85.70
2018-06-12T22:22:46.399Z,85.70
2018-06-12T22:25:21.337Z,86.00
2018-06-12T22:27:52.464Z,86.30
2018-06-12T22:30:26.718Z,86.60
2018-06-12T22:32:57.423Z,86.60
2018-06-12T22:35:27.673Z,86.50
2018-06-12T22:37:57.993Z,86.30
2018-06-12T22:40:38.625Z,86.60
2018-06-12T22:43:10.305Z,87.10
2018-06-12T22:45:40.835Z,87.10
2018-06-12T22:48:12.264Z,87.60
2018-06-12T22:50:42.574Z,88.00
2018-06-12T22:53:14.208Z,87.80
2018-06-12T22:55:45.237Z,87.50
2018-06-12T22:58:16.112Z,87.90
2018-06-12T23:00:47.393Z,87.70
2018-06-12T23:03:18.897Z,87.50
2018-06-12T23:05:50.740Z,87.70
2018-06-12T23:08:21.664Z,87.80
2018-06-12T23:10:52.252Z,87.90
2018-06-12T23:15:53.977Z,87.90
2018-06-12T23:18:24.589Z,87.10
2018-06-12T23:21:07.453Z,86.50
2018-06-12T23:23:38.463Z,86.30
2018-06-12T23:26:15.884Z,86.40
2018-06-12T23:28:52.125Z,86.00
2018-06-12T23:31:22.988Z,86.40
2018-06-12T23:33:53.899Z,86.00
2018-06-12T23:36:25.216Z,86.40
2018-06-12T23:38:56.240Z,87.10
2018-06-12T23:41:26.906Z,87.40
2018-06-12T23:44:01.608Z,87.40
2018-06-12T23:46:32.745Z,87.60
2018-06-12T23:49:03.761Z,87.10
2018-06-12T23:51:34.553Z,86.40
2018-06-12T23:54:05.955Z,86.40
2018-06-12T23:56:37.034Z,86.00
2018-06-12T23:59:07.458Z,86.00
